Terminal Aerodrome Forecast
Issued by NWS Duluth, MN

Home | Current Version | Previous Version | Text Only | Print | Product List | Glossary On
Versions: 1 2 3 4 5 6 7 8 9 10 11 12 13 14 15
000
FTUS43 KDLH 251125
TAFDLH
TAF
KDLH 251125Z 2512/2612 23008KT P6SM SCT080
     FM251800 24011G19KT P6SM SCT045
     FM252000 25012G18KT P6SM VCTS SCT050CB
     FM260400 25004KT P6SM SCT090=

USA.gov is the U.S. government's official web portal to all federal, state and local government web resources and services.